Dades meteomassalio
Diari Summary for Abril 30, 2017 Units:  English    Metric   Both
« Previous Day
Next Day »
Diari Semanal Mensual Anual Personalitzat
  Maxima: Minima: Mijana:
Temperatura: TemperatureC °F 7.4 °F 14.2 °F
Rosada: DewpointC °F 5.4 °F 7.7 °F
Humitat: Humidity % 32 % 70 %
Velocitat del vent: WindSpeedKMH mph 0.0 mph 10.3 mph
Racha vent: WindSpeedGustKMH mph - -
Vent:- - WSW
Pressio: PressurehPa in 1006.0 in -
Pluja: 1.5 in    
Historical Graphs
 
 
Tabular Data for Abril 30, 2017
Time Temperature Dew Point Pressure Wind Wind Speed Wind Gust Humidity Rainfall Rate (Hourly) solar Conditions
TemperatureC °F DewpointC °F PressurehPa in Calm     Humidity % HourlyPrecipMM in SolarRadiationWatts/m^2 W/m2 Conditions
00:00 9.4 °F 7.4 °F 1013.1 in Calm     87 % 0.0 in 0.0 W/m2 RA
00:05 9.3 °F 7.4 °F 1013.1 in Calm     88 % 0.0 in 0.0 W/m2 CLR
00:10 9.4 °F 7.5 °F 1013.1 in Calm     88 % 0.0 in 0.0 W/m2 CLR
00:15 9.5 °F 7.6 °F 1013.1 in Calm     88 % 0.0 in 0.0 W/m2 CLR
00:20 9.7 °F 7.8 °F 1013.1 in Calm     88 % 0.0 in 0.0 W/m2 CLR
00:25 9.8 °F 7.7 °F 1013.1 in SE 5.6 mph   87 % 0.0 in 0.0 W/m2 CLR
00:30 9.8 °F 7.8 °F 1013.1 in Calm     87 % 0.0 in 0.0 W/m2 CLR
00:35 9.9 °F 7.8 °F 1012.8 in Calm     87 % 0.0 in 0.0 W/m2 CLR
00:40 9.9 °F 7.8 °F 1012.8 in Calm     87 % 0.0 in 0.0 W/m2 CLR
00:45 9.9 °F 7.8 °F 1012.8 in Calm     87 % 0.0 in 0.0 W/m2 CLR
00:50 9.9 °F 7.9 °F 1012.8 in Calm     87 % 0.0 in 0.0 W/m2 CLR
00:55 10.0 °F 7.9 °F 1012.8 in Calm     87 % 0.0 in 0.0 W/m2 CLR
01:00 9.9 °F 7.8 °F 1012.8 in Calm     87 % 0.0 in 0.0 W/m2 CLR
01:05 9.8 °F 7.9 °F 1012.8 in Calm     88 % 0.0 in 0.0 W/m2 CLR
01:10 9.8 °F 7.9 °F 1013.1 in WSW 1.6 mph   88 % 0.0 in 0.0 W/m2 CLR
01:15 9.9 °F 7.8 °F 1012.8 in Calm     87 % 0.0 in 0.0 W/m2 CLR
01:20 9.7 °F 7.7 °F 1012.8 in Calm     87 % 0.0 in 0.0 W/m2 CLR
01:25 9.5 °F 7.4 °F 1012.8 in Calm     87 % 0.0 in 0.0 W/m2 CLR
01:30 9.3 °F 7.4 °F 1012.8 in East 3.7 mph 3.7 mph 88 % 0.0 in 0.0 W/m2 CLR
01:35 9.2 °F 7.4 °F 1012.8 in ESE 6.4 mph 6.4 mph 89 % 0.0 in 0.0 W/m2 CLR
01:40 9.1 °F 7.4 °F 1012.8 in East 5.6 mph 5.6 mph 89 % 0.0 in 0.0 W/m2 CLR
01:45 9.3 °F 7.6 °F 1012.8 in ESE 5.6 mph 5.6 mph 89 % 0.0 in 0.0 W/m2 CLR
01:50 9.5 °F 7.8 °F 1012.8 in ESE 7.4 mph 7.4 mph 89 % 0.0 in 0.0 W/m2 CLR
01:55 9.7 °F 7.8 °F 1012.4 in ESE 5.6 mph 5.6 mph 88 % 0.0 in 0.0 W/m2 CLR
02:00 9.6 °F 7.7 °F 1012.4 in ESE 5.6 mph 5.6 mph 88 % 0.0 in 0.0 W/m2 CLR
02:05 9.5 °F 7.6 °F 1012.4 in Calm     88 % 0.0 in 0.0 W/m2 CLR
02:10 9.4 °F 7.6 °F 1012.4 in Calm     88 % 0.0 in 0.0 W/m2 CLR
02:15 9.5 °F 7.6 °F 1012.4 in Calm     88 % 0.0 in 0.0 W/m2 CLR
02:20 9.7 °F 7.8 °F 1012.1 in SE 6.4 mph 6.4 mph 88 % 0.0 in 0.0 W/m2 CLR
02:25 9.9 °F 7.8 °F 1012.4 in Calm     87 % 0.0 in 0.0 W/m2 CLR
02:30 9.9 °F 7.9 °F 1012.1 in Calm     87 % 0.0 in 0.0 W/m2 CLR
02:35 9.9 °F 7.9 °F 1012.1 in Calm     87 % 0.0 in 0.0 W/m2 CLR
02:40 9.8 °F 7.8 °F 1012.1 in Calm     87 % 0.0 in 0.0 W/m2 CLR
02:45 9.7 °F 7.7 °F 1012.1 in Calm     87 % 0.0 in 0.0 W/m2 CLR
02:50 9.6 °F 7.5 °F 1012.1 in Calm     87 % 0.0 in 0.0 W/m2 CLR
02:55 9.3 °F 7.4 °F 1012.1 in Calm     88 % 0.0 in 0.0 W/m2 CLR
03:00 9.2 °F 7.3 °F 1012.1 in Calm     88 % 0.0 in 0.0 W/m2 CLR
03:05 9.0 °F 7.1 °F 1012.1 in Calm     88 % 0.0 in 0.0 W/m2 CLR
03:10 8.9 °F 7.2 °F 1012.1 in Calm     89 % 0.0 in 0.0 W/m2 CLR
03:16 8.8 °F 7.1 °F 1011.7 in Calm     89 % 0.0 in 0.0 W/m2 CLR
03:21 8.8 °F 7.1 °F 1011.7 in Calm     89 % 0.0 in 0.0 W/m2 CLR
03:26 8.6 °F 6.9 °F 1011.7 in Calm     89 % 0.0 in 0.0 W/m2 CLR
03:31 8.3 °F 6.6 °F 1011.7 in Calm     89 % 0.0 in 0.0 W/m2 CLR
03:36 8.5 °F 7.1 °F 1011.7 in Calm     91 % 0.0 in 0.0 W/m2 CLR
03:41 8.4 °F 6.9 °F 1011.7 in Calm     90 % 0.0 in 0.0 W/m2 CLR
03:46 8.3 °F 6.7 °F 1011.7 in Calm     90 % 0.0 in 0.0 W/m2 CLR
03:51 8.2 °F 6.6 °F 1011.7 in Calm     90 % 0.0 in 0.0 W/m2 CLR
03:56 8.0 °F 6.4 °F 1011.7 in Calm     90 % 0.0 in 0.0 W/m2 CLR
04:01 8.0 °F 6.4 °F 1011.7 in Calm     90 % 0.0 in 0.0 W/m2 CLR
04:06 7.8 °F 6.3 °F 1011.7 in Calm     90 % 0.0 in 0.0 W/m2 CLR
04:11 7.7 °F 6.3 °F 1011.7 in Calm     91 % 0.0 in 0.0 W/m2 CLR
04:16 7.7 °F 6.3 °F 1011.7 in Calm     91 % 0.0 in 0.0 W/m2 CLR
04:21 7.6 °F 6.2 °F 1011.7 in Calm     91 % 0.0 in 0.0 W/m2 CLR
04:26 7.6 °F 6.2 °F 1011.7 in Calm     91 % 0.0 in 0.0 W/m2 CLR
04:31 7.7 °F 6.4 °F 1011.7 in Calm     92 % 0.0 in 0.0 W/m2 CLR
04:36 7.7 °F 6.5 °F 1011.7 in Calm     92 % 0.0 in 0.0 W/m2 CLR
04:41 7.7 °F 6.3 °F 1011.7 in Calm     91 % 0.0 in 0.0 W/m2 CLR
04:46 7.6 °F 6.4 °F 1011.7 in Calm     92 % 0.0 in 0.0 W/m2 CLR
04:51 7.6 °F 6.4 °F 1011.7 in Calm     92 % 0.0 in 0.0 W/m2 CLR
04:56 7.7 °F 6.4 °F 1011.7 in Calm     92 % 0.0 in 0.0 W/m2 CLR
05:01 7.8 °F 6.6 °F 1011.7 in Calm     92 % 0.0 in 0.0 W/m2 CLR
05:06 7.8 °F 6.6 °F 1011.7 in Calm     92 % 0.0 in 0.0 W/m2 CLR
05:11 7.8 °F 6.6 °F 1011.7 in Calm     92 % 0.0 in 0.0 W/m2 CLR
05:16 7.8 °F 6.6 °F 1011.7 in Calm     92 % 0.0 in 0.0 W/m2 CLR
05:21 8.0 °F 6.8 °F 1011.7 in Calm     92 % 0.0 in 0.0 W/m2 CLR
05:26 8.2 °F 7.0 °F 1011.7 in Calm     92 % 0.0 in 0.0 W/m2 CLR
05:31 8.4 °F 7.2 °F 1011.4 in Calm     92 % 0.0 in 0.0 W/m2 CLR
05:36 8.4 °F 7.2 °F 1011.7 in Calm     92 % 0.0 in 0.0 W/m2 CLR
05:41 8.5 °F 7.3 °F 1011.7 in Calm     92 % 0.0 in 0.0 W/m2 CLR
05:46 8.4 °F 7.2 °F 1011.4 in Calm     92 % 0.0 in 0.0 W/m2 CLR
05:51 8.4 °F 7.0 °F 1011.4 in Calm     91 % 0.0 in 0.0 W/m2 CLR
05:56 8.4 °F 7.0 °F 1011.7 in Calm     91 % 0.0 in 0.0 W/m2 CLR
06:01 8.4 °F 7.2 °F 1011.7 in Calm     92 % 0.0 in 0.0 W/m2 CLR
06:06 8.3 °F 6.9 °F 1011.7 in Calm     91 % 0.0 in 0.0 W/m2 CLR
06:11 8.3 °F 7.1 °F 1011.4 in Calm     92 % 0.0 in 0.0 W/m2 CLR
06:17 8.2 °F 6.8 °F 1011.4 in Calm     91 % 0.0 in 0.0 W/m2 CLR
06:22 8.1 °F 6.7 °F 1011.7 in Calm     91 % 0.0 in 0.0 W/m2 CLR
06:27 8.1 °F 6.8 °F 1011.4 in Calm     92 % 0.0 in 0.0 W/m2 CLR
06:32 7.9 °F 6.6 °F 1011.7 in Calm     91 % 0.0 in 0.0 W/m2 CLR
06:37 7.9 °F 6.5 °F 1011.7 in Calm     91 % 0.0 in 0.0 W/m2 CLR
06:42 7.8 °F 6.4 °F 1011.4 in Calm     91 % 0.0 in 0.0 W/m2 CLR
06:47 7.8 °F 6.6 °F 1011.4 in Calm     92 % 0.0 in 0.0 W/m2 CLR
06:52 7.7 °F 6.4 °F 1011.4 in Calm     92 % 0.0 in 0.0 W/m2 OVC
06:57 7.7 °F 6.5 °F 1011.4 in Calm     92 % 0.0 in 5.0 W/m2 OVC
07:02 7.7 °F 6.4 °F 1011.4 in Calm     92 % 0.0 in 5.0 W/m2 OVC
07:07 7.7 °F 6.4 °F 1011.4 in Calm     92 % 0.0 in 12.0 W/m2 BKN
07:12 7.6 °F 6.3 °F 1011.7 in Calm     92 % 0.0 in 19.0 W/m2 BKN
07:17 7.4 °F 6.1 °F 1011.7 in Calm     91 % 0.0 in 30.0 W/m2 BKN
07:22 7.5 °F 6.3 °F 1011.7 in Calm     92 % 0.0 in 30.0 W/m2 BKN
07:27 7.6 °F 6.3 °F 1011.7 in Calm     92 % 0.0 in 44.0 W/m2 BKN
07:32 7.6 °F 6.3 °F 1011.7 in Calm     92 % 0.0 in 54.0 W/m2 SCT
07:37 7.7 °F 6.5 °F 1011.7 in Calm     92 % 0.0 in 49.0 W/m2 SCT
07:42 7.9 °F 6.7 °F 1011.7 in Calm     92 % 0.0 in 51.0 W/m2 SCT
07:47 8.1 °F 6.9 °F 1011.7 in Calm     92 % 0.0 in 56.0 W/m2 SCT
07:52 8.2 °F 7.0 °F 1011.7 in Calm     92 % 0.0 in 86.0 W/m2 FEW
07:57 8.3 °F 7.1 °F 1011.4 in Calm     92 % 0.0 in 97.0 W/m2 CLR
08:02 8.5 °F 7.3 °F 1011.4 in Calm     92 % 0.0 in 93.0 W/m2 CLR
08:07 8.7 °F 7.5 °F 1011.7 in Calm     92 % 0.0 in 86.0 W/m2 CLR
08:12 8.9 °F 7.7 °F 1011.4 in Calm     92 % 0.0 in 91.0 W/m2 CLR
08:17 9.1 °F 7.9 °F 1011.4 in Calm     92 % 0.0 in 98.0 W/m2 CLR
08:22 9.3 °F 8.1 °F 1011.4 in Calm     92 % 0.0 in 100.0 W/m2 CLR
08:27 9.5 °F 8.3 °F 1011.4 in Calm     92 % 0.0 in 109.0 W/m2 CLR
08:32 9.8 °F 8.6 °F 1011.4 in Calm     92 % 0.0 in 118.0 W/m2 CLR
08:37 10.1 °F 8.7 °F 1011.4 in Calm     91 % 0.0 in 132.0 W/m2 CLR
08:42 10.3 °F 8.9 °F 1011.4 in Calm     91 % 0.0 in 144.0 W/m2 CLR
08:47 10.5 °F 8.9 °F 1011.1 in Calm     90 % 0.0 in 155.0 W/m2 CLR
08:52 10.7 °F 8.9 °F 1011.4 in Calm     89 % 0.0 in 165.0 W/m2 CLR
08:57 10.8 °F 9.1 °F 1011.1 in Calm     89 % 0.0 in 178.0 W/m2 CLR
09:02 11.0 °F 9.3 °F 1011.1 in Calm     89 % 0.0 in 193.0 W/m2 CLR
09:07 11.2 °F 9.5 °F 1011.1 in Calm     89 % 0.0 in 206.0 W/m2 CLR
09:12 11.3 °F 9.4 °F 1011.1 in Calm     88 % 0.0 in 200.0 W/m2 CLR
09:17 11.6 °F 9.6 °F 1011.1 in Calm     88 % 0.0 in 193.0 W/m2 CLR
09:22 11.8 °F 9.8 °F 1010.7 in Calm     88 % 0.0 in 186.0 W/m2 CLR
09:27 12.0 °F 9.9 °F 1010.7 in Calm     87 % 0.0 in 178.0 W/m2 CLR
09:32 12.2 °F 9.9 °F 1010.7 in Calm     86 % 0.0 in 206.0 W/m2 CLR
09:37 12.4 °F 10.2 °F 1010.7 in Calm     86 % 0.0 in 274.0 W/m2 CLR
09:42 12.8 °F 10.3 °F 1010.7 in Calm     85 % 0.0 in 366.0 W/m2 CLR
09:47 13.2 °F 10.8 °F 1010.7 in Calm     85 % 0.0 in 420.0 W/m2 CLR
09:52 13.7 °F 10.8 °F 1010.4 in Calm     83 % 0.0 in 302.0 W/m2 CLR
09:57 14.0 °F 10.8 °F 1010.7 in Calm     81 % 0.0 in 297.0 W/m2 CLR
10:02 14.3 °F 10.7 °F 1010.4 in Calm     79 % 0.0 in 332.0 W/m2 CLR
10:07 14.6 °F 10.8 °F 1010.4 in Calm     78 % 0.0 in 413.0 W/m2 CLR
10:12 15.0 °F 11.0 °F 1010.4 in Calm     77 % 0.0 in 473.0 W/m2 CLR
10:17 15.5 °F 11.1 °F 1010.4 in Calm     75 % 0.0 in 496.0 W/m2 CLR
10:22 15.8 °F 11.2 °F 1010.4 in Calm     74 % 0.0 in 571.0 W/m2 CLR
10:27 16.3 °F 11.2 °F 1010.4 in Calm     72 % 0.0 in 603.0 W/m2 CLR
10:32 16.8 °F 11.1 °F 1010.4 in Calm     69 % 0.0 in 563.0 W/m2 CLR
10:37 17.3 °F 11.1 °F 1010.0 in ESE 6.4 mph 6.4 mph 67 % 0.0 in 659.0 W/m2 CLR
10:42 17.4 °F 10.6 °F 1010.0 in SE 8.0 mph 8.0 mph 64 % 0.0 in 635.0 W/m2 CLR
10:47 17.6 °F 10.7 °F 1010.0 in SE 11.1 mph 11.1 mph 64 % 0.0 in 649.0 W/m2 CLR
10:52 17.9 °F 10.7 °F 1010.0 in East 4.8 mph   63 % 0.0 in 573.0 W/m2 CLR
10:57 18.3 °F 9.9 °F 1009.7 in SSE 11.1 mph 11.1 mph 58 % 0.0 in 687.0 W/m2 CLR
11:02 18.5 °F 10.1 °F 1009.7 in East 7.4 mph 7.4 mph 58 % 0.0 in 675.0 W/m2 CLR
11:07 18.8 °F 9.9 °F 1009.7 in ESE 9.3 mph 9.3 mph 56 % 0.0 in 696.0 W/m2 CLR
11:12 19.2 °F 9.9 °F 1009.7 in ENE 7.4 mph 7.4 mph 55 % 0.0 in 724.0 W/m2 CLR
11:17 19.6 °F 10.0 °F 1009.4 in SE 11.3 mph 11.3 mph 54 % 0.0 in 742.0 W/m2 CLR
11:22 19.7 °F 9.6 °F 1009.4 in SSE 9.3 mph 9.3 mph 52 % 0.0 in 737.0 W/m2 CLR
11:27 20.0 °F 9.3 °F 1009.4 in NE 9.3 mph 9.3 mph 50 % 0.0 in 807.0 W/m2 CLR
11:33 20.1 °F 9.3 °F 1009.4 in East 6.4 mph 6.4 mph 50 % 0.0 in 824.0 W/m2 CLR
11:38 20.3 °F 9.2 °F 1009.0 in South 8.0 mph 8.0 mph 49 % 0.0 in 816.0 W/m2 CLR
11:43 20.6 °F 9.2 °F 1009.0 in SSE 3.7 mph   48 % 0.0 in 821.0 W/m2 CLR
11:48 20.7 °F 8.7 °F 1009.0 in ESE 9.3 mph 9.3 mph 46 % 0.0 in 937.0 W/m2 CLR
11:53 21.0 °F 7.9 °F 1009.0 in WNW 14.8 mph 14.8 mph 43 % 0.0 in 926.0 W/m2 CLR
11:58 21.1 °F 8.1 °F 1009.0 in NW 16.7 mph 16.7 mph 43 % 0.0 in 397.0 W/m2 CLR
12:03 21.1 °F 8.4 °F 1009.0 in NW 5.6 mph 5.6 mph 44 % 0.0 in 833.0 W/m2 CLR
12:08 21.2 °F 8.1 °F 1008.7 in West 22.2 mph 22.2 mph 43 % 0.0 in 413.0 W/m2 CLR
12:13 21.1 °F 7.7 °F 1008.7 in WSW 14.8 mph 14.8 mph 42 % 0.0 in 381.0 W/m2 CLR
12:18 20.8 °F 8.1 °F 1008.7 in NW 11.1 mph 11.1 mph 44 % 0.0 in 236.0 W/m2 CLR
12:23 20.6 °F 8.2 °F 1008.7 in WNW 8.0 mph 8.0 mph 45 % 0.0 in 142.0 W/m2 CLR
12:28 20.4 °F 7.7 °F 1008.7 in West 13.0 mph 13.0 mph 44 % 0.0 in 162.0 W/m2 CLR
12:33 20.2 °F 7.2 °F 1008.7 in West 11.1 mph 11.1 mph 43 % 0.0 in 239.0 W/m2 CLR
12:38 20.2 °F 7.2 °F 1008.7 in West 5.6 mph 5.6 mph 43 % 0.0 in 272.0 W/m2 CLR
12:43 20.3 °F 7.7 °F 1008.7 in West 9.3 mph 9.3 mph 44 % 0.0 in 376.0 W/m2 CLR
12:48 20.5 °F 7.5 °F 1008.4 in Calm   2.7 mph 43 % 0.0 in 404.0 W/m2 CLR
12:53 20.9 °F 8.6 °F 1008.4 in Calm     45 % 0.0 in 540.0 W/m2 CLR
12:58 21.6 °F 8.1 °F 1008.0 in Calm     42 % 0.0 in 543.0 W/m2 CLR
13:03 21.8 °F 7.3 °F 1008.0 in Calm     39 % 0.0 in 584.0 W/m2 CLR
13:08 21.9 °F 7.3 °F 1008.0 in Calm   0.2 mph 39 % 0.0 in 589.0 W/m2 CLR
13:13 22.1 °F 6.7 °F 1008.0 in WSW 14.8 mph 14.8 mph 37 % 0.0 in 612.0 W/m2 CLR
13:18 22.0 °F 6.6 °F 1007.7 in SW 11.3 mph 11.3 mph 37 % 0.0 in 707.0 W/m2 CLR
13:23 22.2 °F 6.8 °F 1007.7 in SSW 9.3 mph 9.3 mph 37 % 0.0 in 515.0 W/m2 CLR
13:28 22.2 °F 6.4 °F 1007.7 in WNW 24.1 mph 24.1 mph 36 % 0.0 in 508.0 W/m2 CLR
13:33 21.9 °F 6.6 °F 1007.7 in West 16.7 mph 16.7 mph 37 % 0.0 in 473.0 W/m2 CLR
13:39 21.9 °F 6.1 °F 1007.7 in West 22.2 mph 22.2 mph 36 % 0.0 in 439.0 W/m2 CLR
13:43 21.9 °F 6.1 °F 1007.7 in West 13.0 mph 13.0 mph 36 % 0.0 in 654.0 W/m2 CLR
13:48 22.0 °F 6.2 °F 1007.3 in WSW 14.5 mph 14.5 mph 36 % 0.0 in 568.0 W/m2 CLR
13:54 22.1 °F 5.5 °F 1007.3 in SSW 18.5 mph 18.5 mph 34 % 0.0 in 517.0 W/m2 CLR
13:59 22.0 °F 5.4 °F 1007.3 in WSW 24.1 mph 24.1 mph 34 % 0.0 in 592.0 W/m2 CLR
14:04 21.9 °F 6.1 °F 1007.3 in WSW 18.5 mph 18.5 mph 36 % 0.0 in 700.0 W/m2 CLR
14:09 22.0 °F 5.8 °F 1007.3 in WSW 11.1 mph 11.1 mph 35 % 0.0 in 668.0 W/m2 CLR
14:14 22.4 °F 6.6 °F 1007.3 in NW 14.8 mph 14.8 mph 36 % 0.0 in 905.0 W/m2 CLR
14:19 22.7 °F 6.4 °F 1007.3 in SW 1.9 mph   35 % 0.0 in 802.0 W/m2 CLR
14:24 23.1 °F 7.2 °F 1007.3 in WNW 16.1 mph 16.1 mph 36 % 0.0 in 940.0 W/m2 CLR
14:29 22.9 °F 6.2 °F 1007.3 in West 18.5 mph 18.5 mph 34 % 0.0 in 911.0 W/m2 CLR
14:34 22.8 °F 6.5 °F 1007.0 in West 13.0 mph 13.0 mph 35 % 0.0 in 775.0 W/m2 CLR
14:39 22.7 °F 5.6 °F 1007.3 in SW 16.7 mph 16.7 mph 33 % 0.0 in 979.0 W/m2 CLR
14:44 22.8 °F 6.2 °F 1007.0 in WNW 13.0 mph 13.0 mph 34 % 0.0 in 847.0 W/m2 CLR
14:49 23.0 °F 5.8 °F 1007.3 in NW 13.0 mph 13.0 mph 33 % 0.0 in 710.0 W/m2 CLR
14:54 23.1 °F 5.5 °F 1007.3 in WSW 16.7 mph 16.7 mph 32 % 0.0 in 923.0 W/m2 CLR
14:59 22.8 °F 5.7 °F 1007.3 in West 7.4 mph 7.4 mph 33 % 0.0 in 1005.0 W/m2 CLR
15:04 23.1 °F 6.3 °F 1007.3 in WSW 11.1 mph 11.1 mph 34 % 0.0 in 1049.0 W/m2 CLR
15:09 23.4 °F 6.2 °F 1007.3 in WNW 29.6 mph 29.6 mph 33 % 0.0 in 691.0 W/m2 CLR
15:14 23.0 °F 5.8 °F 1007.3 in WNW 27.8 mph 27.8 mph 33 % 0.0 in 341.0 W/m2 CLR
15:19 22.5 °F 5.4 °F 1007.3 in WNW 14.8 mph 14.8 mph 33 % 0.0 in 336.0 W/m2 CLR
15:24 22.3 °F 5.7 °F 1007.3 in WNW 31.5 mph 31.5 mph 34 % 0.0 in 330.0 W/m2 CLR
15:29 22.0 °F 5.4 °F 1007.3 in West 29.6 mph 29.6 mph 34 % 0.0 in 406.0 W/m2 CLR
15:34 21.9 °F 5.7 °F 1007.3 in West 18.5 mph 18.5 mph 35 % 0.0 in 371.0 W/m2 CLR
15:39 21.8 °F 5.7 °F 1007.0 in West 11.1 mph 11.1 mph 35 % 0.0 in 411.0 W/m2 CLR
15:44 22.0 °F 5.8 °F 1007.0 in WSW 9.3 mph 9.3 mph 35 % 0.0 in 425.0 W/m2 CLR
15:49 22.3 °F 6.5 °F 1007.0 in WNW 9.7 mph 9.7 mph 36 % 0.0 in 483.0 W/m2 CLR
15:54 22.4 °F 6.2 °F 1007.0 in WNW 9.7 mph 9.7 mph 35 % 0.0 in 390.0 W/m2 CLR
15:59 22.3 °F 6.1 °F 1007.0 in WSW 13.0 mph 13.0 mph 35 % 0.0 in 429.0 W/m2 CLR
16:04 22.2 °F 6.0 °F 1006.7 in SW 29.6 mph 29.6 mph 35 % 0.0 in 338.0 W/m2 CLR
16:09 22.3 °F 6.5 °F 1007.0 in West 20.4 mph 20.4 mph 36 % 0.0 in 350.0 W/m2 CLR
16:14 22.2 °F 6.4 °F 1007.0 in WNW 20.9 mph 20.9 mph 36 % 0.0 in 408.0 W/m2 CLR
16:19 22.3 °F 6.6 °F 1006.7 in WNW 5.6 mph 5.6 mph 36 % 0.0 in 570.0 W/m2 CLR
16:24 22.5 °F 6.7 °F 1006.7 in West 7.4 mph 7.4 mph 36 % 0.0 in 285.0 W/m2 CLR
16:29 22.7 °F 6.9 °F 1006.7 in West 16.7 mph 16.7 mph 36 % 0.0 in 392.0 W/m2 CLR
16:34 22.6 °F 6.4 °F 1006.7 in WNW 19.3 mph 19.3 mph 35 % 0.0 in 425.0 W/m2 CLR
16:39 23.0 °F 7.1 °F 1006.7 in SSW 18.5 mph 18.5 mph 36 % 0.0 in 853.0 W/m2 CLR
16:44 22.7 °F 6.1 °F 1006.7 in WSW 5.6 mph 5.6 mph 34 % 0.0 in 225.0 W/m2 CLR
16:49 22.5 °F 6.3 °F 1006.7 in SSW 20.4 mph 20.4 mph 35 % 0.0 in 262.0 W/m2 CLR
16:54 22.4 °F 6.6 °F 1006.7 in WNW 22.2 mph 22.2 mph 36 % 0.0 in 313.0 W/m2 CLR
16:59 22.6 °F 6.8 °F 1006.3 in SSW 9.3 mph 9.3 mph 36 % 0.0 in 325.0 W/m2 CLR
17:04 22.8 °F 6.6 °F 1006.3 in West 31.5 mph 31.5 mph 35 % 0.0 in 483.0 W/m2 CLR
17:09 22.6 °F 6.8 °F 1006.3 in West 29.6 mph 29.6 mph 36 % 0.0 in 253.0 W/m2 CLR
17:14 22.9 °F 7.1 °F 1006.0 in WSW 19.3 mph 19.3 mph 36 % 0.0 in 253.0 W/m2 CLR
17:19 22.7 °F 6.9 °F 1006.3 in WSW 33.3 mph 33.3 mph 36 % 0.0 in 258.0 W/m2 CLR
17:24 22.6 °F 6.7 °F 1006.3 in WSW 29.6 mph 29.6 mph 36 % 0.0 in 311.0 W/m2 CLR
17:29 22.8 °F 6.6 °F 1006.3 in West 37.0 mph 37.0 mph 35 % 0.0 in 232.0 W/m2 CLR
17:34 22.7 °F 6.1 °F 1006.0 in SW 61.1 mph 61.1 mph 34 % 0.0 in 715.0 W/m2 CLR
17:39 22.9 °F 6.6 °F 1006.0 in West 44.4 mph 44.4 mph 35 % 0.0 in 619.0 W/m2 CLR
17:44 22.6 °F 6.3 °F 1006.0 in West 46.3 mph 46.3 mph 35 % 0.0 in 582.0 W/m2 CLR
17:49 22.0 °F 6.6 °F 1006.3 in WSW 31.5 mph 31.5 mph 37 % 0.0 in 127.0 W/m2 CLR
17:54 21.8 °F 6.5 °F 1006.3 in West 37.0 mph 37.0 mph 37 % 0.0 in 134.0 W/m2 CLR
17:59 21.4 °F 6.2 °F 1006.3 in WSW 48.1 mph 48.1 mph 37 % 0.0 in 174.0 W/m2 CLR
18:04 21.4 °F 6.1 °F 1006.3 in West 50.0 mph 50.0 mph 37 % 0.0 in 262.0 W/m2 CLR
18:09 21.2 °F 6.3 °F 1006.3 in West 37.0 mph 37.0 mph 38 % 0.0 in 139.0 W/m2 CLR
18:14 21.1 °F 6.2 °F 1006.7 in WNW 37.0 mph 37.0 mph 38 % 0.0 in 197.0 W/m2 CLR
18:16 21.2 °F 6.3 °F 1006.7 in WNW 44.4 mph 44.4 mph 38 % 0.0 in 197.0 W/m2 CLR
18:21 21.2 °F 6.7 °F 1006.7 in WNW 35.2 mph 35.2 mph 39 % 0.0 in 178.0 W/m2 CLR
18:26 21.1 °F 6.2 °F 1006.3 in WSW 46.3 mph 46.3 mph 38 % 0.0 in 155.0 W/m2 CLR
18:31 21.3 °F 6.8 °F 1006.3 in SW 35.2 mph 35.2 mph 39 % 0.0 in 552.0 W/m2 CLR
18:36 21.3 °F 6.8 °F 1006.7 in WSW 35.2 mph 35.2 mph 39 % 0.0 in 438.0 W/m2 CLR
18:41 21.0 °F 6.5 °F 1006.7 in WNW 27.8 mph 27.8 mph 39 % 0.0 in 86.0 W/m2 CLR
18:42 20.9 °F 6.8 °F 1006.7 in West 31.5 mph 31.5 mph 40 % 0.0 in 93.0 W/m2 CLR
18:47 20.7 °F 6.6 °F 1006.7 in West 33.8 mph 33.8 mph 40 % 0.0 in 141.0 W/m2 CLR
18:52 20.8 °F 7.1 °F 1007.0 in WSW 42.6 mph 42.6 mph 41 % 0.0 in 420.0 W/m2 CLR
18:57 19.3 °F 8.7 °F 1007.0 in West 37.0 mph 37.0 mph 50 % 0.0 in 371.0 W/m2 CLR
19:02 19.1 °F 8.7 °F 1007.0 in WNW 20.4 mph 20.4 mph 51 % 0.0 in 394.0 W/m2 CLR
19:07 19.6 °F 8.8 °F 1007.0 in WSW 18.5 mph 18.5 mph 50 % 0.0 in 95.0 W/m2 CLR
19:12 19.6 °F 7.6 °F 1007.3 in NW 31.5 mph 31.5 mph 46 % 0.0 in 54.0 W/m2 CLR
19:13 19.6 °F 7.3 °F 1007.7 in NNW 33.3 mph 33.3 mph 45 % 0.0 in 35.0 W/m2 CLR
19:18 18.1 °F 8.9 °F 1008.0 in NNW 37.0 mph 37.0 mph 55 % 0.0 in 42.0 W/m2 SCT
19:23 16.4 °F 9.1 °F 1008.7 in NNW 46.3 mph 46.3 mph 62 % 0.0 in 39.0 W/m2 BKN
19:28 14.9 °F 8.9 °F 1009.0 in NW 42.6 mph 42.6 mph 67 % 0.0 in 49.0 W/m2 BKN
19:33 14.1 °F 9.1 °F 1009.7 in North 48.1 mph 48.1 mph 72 % 0.0 in 33.0 W/m2 BKN
19:38 13.3 °F 8.9 °F 1009.7 in NNW 33.3 mph 33.3 mph 75 % 0.0 in 42.0 W/m2 BKN
19:43 12.8 °F 9.2 °F 1009.7 in North 29.6 mph 29.6 mph 79 % 0.0 in 42.0 W/m2 BKN
19:48 12.3 °F 8.9 °F 1009.7 in NNW 37.0 mph 37.0 mph 80 % 0.3 in 40.0 W/m2 RA
19:53 11.9 °F 8.9 °F 1010.4 in NNW 35.2 mph 35.2 mph 82 % 0.3 in 14.0 W/m2 BKN
19:58 11.7 °F 8.9 °F 1010.4 in NW 20.4 mph 20.4 mph 83 % 0.3 in 11.0 W/m2 BKN
20:03 11.7 °F 9.2 °F 1010.4 in WNW 22.2 mph 22.2 mph 85 % 0.5 in 12.0 W/m2 RA
20:08 11.5 °F 9.1 °F 1010.7 in NW 24.1 mph 24.1 mph 85 % 0.5 in 7.0 W/m2 RA
20:13 11.4 °F 9.1 °F 1010.7 in NW 22.2 mph 22.2 mph 86 % 0.5 in 7.0 W/m2 BKN
20:18 11.3 °F 9.1 °F 1010.7 in NNW 18.5 mph 18.5 mph 86 % 0.5 in 12.0 W/m2 BKN
20:23 11.3 °F 9.2 °F 1011.1 in WNW 18.5 mph 18.5 mph 87 % 0.8 in 9.0 W/m2 RA
20:28 11.2 °F 9.1 °F 1011.1 in NW 14.5 mph 14.5 mph 87 % 1.0 in 14.0 W/m2 RA
20:34 11.1 °F 9.2 °F 1011.1 in WNW 16.7 mph 16.7 mph 88 % 1.3 in 7.0 W/m2 RA
20:38 11.0 °F 9.1 °F 1011.4 in WNW 14.8 mph 14.8 mph 88 % 1.3 in 5.0 W/m2 CLR
20:39 10.9 °F 9.1 °F 1011.4 in WNW 16.7 mph 16.7 mph 88 % 1.3 in 5.0 W/m2 CLR
20:44 10.9 °F 9.0 °F 1011.4 in West 13.0 mph 13.0 mph 88 % 1.5 in 5.0 W/m2 RA
20:49 10.9 °F 9.1 °F 1011.1 in WSW 14.8 mph 14.8 mph 88 % 1.3 in 5.0 W/m2 CLR
20:54 10.9 °F 9.1 °F 1011.4 in West 20.4 mph 20.4 mph 88 % 1.3 in 0.0 W/m2 OVC
20:59 10.9 °F 8.9 °F 1011.4 in WSW 7.4 mph 7.4 mph 87 % 1.3 in 0.0 W/m2 OVC
21:04 10.9 °F 8.9 °F 1011.4 in SW 14.8 mph 14.8 mph 87 % 1.0 in 0.0 W/m2 CLR
21:09 11.0 °F 9.1 °F 1011.4 in WSW 14.8 mph 14.8 mph 88 % 0.8 in 0.0 W/m2 CLR
21:14 10.9 °F 9.0 °F 1011.4 in WSW 16.7 mph 16.7 mph 88 % 0.8 in 0.0 W/m2 CLR
21:19 10.8 °F 8.9 °F 1011.4 in WSW 18.5 mph 18.5 mph 88 % 0.8 in 0.0 W/m2 CLR
21:24 10.8 °F 8.9 °F 1011.4 in WSW 16.7 mph 16.7 mph 88 % 0.5 in 0.0 W/m2 CLR
21:29 10.8 °F 8.9 °F 1011.4 in WSW 16.7 mph 16.7 mph 88 % 0.5 in 0.0 W/m2 CLR
21:34 10.8 °F 8.9 °F 1011.4 in WSW 14.8 mph 14.8 mph 88 % 0.3 in 0.0 W/m2 CLR
21:39 10.8 °F 8.9 °F 1011.4 in WSW 18.5 mph 18.5 mph 88 % 0.3 in 0.0 W/m2 CLR
21:40 10.9 °F 9.0 °F 1011.4 in WSW 18.5 mph 18.5 mph 88 % 0.3 in 0.0 W/m2 CLR
21:45 11.0 °F 8.9 °F 1011.7 in WSW 18.5 mph 18.5 mph 87 % 0.0 in 0.0 W/m2 CLR
21:50 11.1 °F 8.8 °F 1011.7 in WSW 18.5 mph 18.5 mph 86 % 0.0 in 0.0 W/m2 CLR
21:55 11.2 °F 8.9 °F 1012.1 in SW 16.7 mph 16.7 mph 86 % 0.0 in 0.0 W/m2 CLR
22:00 11.2 °F 8.9 °F 1012.1 in WSW 16.7 mph 16.7 mph 86 % 0.0 in 0.0 W/m2 CLR
22:05 11.2 °F 8.9 °F 1012.1 in WSW 14.8 mph 14.8 mph 86 % 0.0 in 0.0 W/m2 CLR
22:10 11.2 °F 8.9 °F 1011.7 in SSW 11.1 mph 11.1 mph 86 % 0.0 in 0.0 W/m2 CLR
22:15 11.2 °F 8.9 °F 1012.1 in West 13.0 mph 13.0 mph 86 % 0.0 in 0.0 W/m2 CLR
22:20 11.1 °F 8.8 °F 1012.1 in WSW 3.7 mph   86 % 0.0 in 0.0 W/m2 CLR
22:25 11.1 °F 8.7 °F 1012.1 in WSW 9.3 mph 9.3 mph 85 % 0.0 in 0.0 W/m2 CLR
22:30 11.2 °F 8.6 °F 1012.1 in West 3.7 mph   84 % 0.0 in 0.0 W/m2 CLR
22:35 11.3 °F 8.3 °F 1012.1 in West 12.9 mph 12.9 mph 82 % 0.0 in 0.0 W/m2 CLR
22:40 11.4 °F 7.9 °F 1012.4 in West 13.0 mph 13.0 mph 79 % 0.0 in 0.0 W/m2 CLR
22:45 11.6 °F 7.7 °F 1012.4 in WNW 18.5 mph 18.5 mph 77 % 0.0 in 0.0 W/m2 CLR
22:50 11.7 °F 7.8 °F 1012.4 in West 14.8 mph 14.8 mph 77 % 0.0 in 0.0 W/m2 CLR
22:55 11.7 °F 7.8 °F 1012.8 in WNW 7.4 mph 7.4 mph 77 % 0.0 in 0.0 W/m2 CLR
23:00 11.6 °F 7.8 °F 1012.8 in WNW 11.1 mph 11.1 mph 78 % 0.0 in 0.0 W/m2 CLR
23:01 11.6 °F 7.8 °F 1012.8 in WNW 11.1 mph 11.1 mph 78 % 0.0 in 0.0 W/m2 CLR
23:06 11.6 °F 7.8 °F 1012.8 in Calm     78 % 0.0 in 0.0 W/m2 CLR
23:10 11.4 °F 7.9 °F 1013.1 in Calm     79 % 0.0 in 0.0 W/m2 CLR
23:16 11.3 °F 8.0 °F 1013.1 in Calm     80 % 0.0 in 0.0 W/m2 CLR
23:21 11.3 °F 7.9 °F 1013.1 in Calm     80 % 0.0 in 0.0 W/m2 CLR
23:26 11.2 °F 7.9 °F 1013.1 in Calm     80 % 0.0 in 0.0 W/m2 CLR
23:31 11.2 °F 7.9 °F 1013.1 in Calm     80 % 0.0 in 0.0 W/m2 CLR
23:36 11.2 °F 8.1 °F 1013.1 in Calm     81 % 0.0 in 0.0 W/m2 CLR
23:41 11.2 °F 8.0 °F 1013.1 in Calm     81 % 0.0 in 0.0 W/m2 CLR
23:46 11.2 °F 7.9 °F 1013.1 in Calm     80 % 0.0 in 0.0 W/m2 CLR
23:51 11.3 °F 7.8 °F 1013.1 in Calm     79 % 0.0 in 0.0 W/m2 CLR
23:56 11.4 °F 7.9 °F 1013.1 in Calm     79 % 0.0 in 0.0 W/m2 CLR
Lo Temps de Massalio
Compliments of Weather Underground - 1.25 mb